Time;durP1;ratioP1;P1;durP2;ratioP2;P2;SDS_P1;SDS_P2;PMS_P1;PMS_P2;Temp;Humidity;BMP_temperature;BMP_pressure;BME280_temperature;BME280_humidity;BME280_pressure;Samples;Min_cycle;Max_cycle;Signal;HPM_P1;HPM_P2
2023/09/27 00:02:43;;;;;;;2.03;1.50;;;21.50;65.00;;;;;;6266351;28;20033;-70
2023/09/27 00:05:45;;;;;;;2.60;1.40;;;21.50;65.00;;;;;;6260450;28;20395;-70
2023/09/27 00:08:46;;;;;;;1.25;1.10;;;21.50;64.90;;;;;;6269220;28;20040;-70
2023/09/27 00:11:48;;;;;;;1.63;1.25;;;21.50;65.00;;;;;;6267918;28;20392;-70
2023/09/27 00:14:48;;;;;;;1.63;1.38;;;21.50;65.00;;;;;;6261687;28;20021;-70
2023/09/27 00:17:49;;;;;;;1.90;1.40;;;21.50;65.00;;;;;;6268908;28;20055;-69
2023/09/27 00:20:50;;;;;;;1.75;1.23;;;21.50;65.00;;;;;;6269530;28;20025;-71
2023/09/27 00:23:50;;;;;;;2.67;1.30;;;21.50;65.00;;;;;;6270383;28;20021;-70
2023/09/27 00:26:51;;;;;;;1.38;1.23;;;21.50;65.00;;;;;;6260219;28;20033;-69
2023/09/27 00:29:54;;;;;;;2.10;1.50;;;21.50;65.00;;;;;;6260254;28;20056;-69
2023/09/27 00:32:55;;;;;;;1.40;1.30;;;21.50;65.10;;;;;;6270214;28;20109;-69
2023/09/27 00:35:56;;;;;;;1.73;1.60;;;21.50;65.00;;;;;;6268400;28;20025;-69
2023/09/27 00:38:57;;;;;;;1.65;1.40;;;21.50;65.00;;;;;;6268082;28;20041;-70
2023/09/27 00:41:57;;;;;;;1.40;1.10;;;21.50;65.00;;;;;;6265873;28;20491;-69
2023/09/27 00:44:58;;;;;;;1.55;1.30;;;21.50;65.00;;;;;;6261813;28;20524;-70
2023/09/27 00:47:59;;;;;;;1.63;1.27;;;21.50;65.10;;;;;;6269075;28;20507;-70
2023/09/27 00:51:01;;;;;;;1.35;1.20;;;21.50;65.10;;;;;;6257467;28;20036;-69
2023/09/27 00:54:02;;;;;;;1.88;1.42;;;21.50;65.00;;;;;;6268219;28;20078;-68
2023/09/27 00:57:03;;;;;;;1.50;1.40;;;21.50;65.90;;;;;;6261218;28;20017;-71
2023/09/27 01:00:09;;;;;;;1.63;1.35;;;21.50;65.00;;;;;;6269246;28;20029;-69
2023/09/27 01:03:11;;;;;;;1.35;1.20;;;21.50;65.10;;;;;;6257128;28;20388;-69
2023/09/27 01:06:13;;;;;;;2.13;1.33;;;21.50;65.00;;;;;;6263465;28;20064;-69
2023/09/27 01:09:15;;;;;;;2.38;1.40;;;21.50;65.00;;;;;;6267827;28;20029;-69
2023/09/27 01:12:17;;;;;;;2.33;1.50;;;21.50;65.00;;;;;;6259048;28;20021;-69
2023/09/27 01:15:17;;;;;;;2.10;1.67;;;21.50;65.00;;;;;;6269116;28;20057;-69
2023/09/27 01:18:18;;;;;;;1.90;1.33;;;21.50;65.00;;;;;;6259169;28;20022;-69
2023/09/27 01:21:19;;;;;;;2.95;1.75;;;21.50;65.00;;;;;;6263739;28;20025;-69
2023/09/27 01:24:21;;;;;;;2.35;1.20;;;21.50;65.00;;;;;;6268520;28;20025;-69
2023/09/27 01:27:22;;;;;;;1.88;1.48;;;21.50;65.00;;;;;;6267554;28;20098;-70
2023/09/27 01:30:25;;;;;;;1.42;1.33;;;21.50;65.00;;;;;;6268195;28;20437;-69
2023/09/27 01:33:26;;;;;;;2.40;1.50;;;21.50;65.00;;;;;;6268490;28;20032;-70
2023/09/27 01:36:27;;;;;;;2.13;1.75;;;21.50;65.00;;;;;;6268769;28;20484;-69
2023/09/27 01:39:30;;;;;;;1.73;1.40;;;21.50;65.00;;;;;;6266812;28;20450;-69
2023/09/27 01:42:31;;;;;;;1.77;1.35;;;21.50;65.00;;;;;;6246889;28;20099;-69
2023/09/27 01:45:33;;;;;;;1.90;1.63;;;21.50;65.00;;;;;;6264616;28;20036;-70
2023/09/27 01:48:34;;;;;;;1.95;1.50;;;21.50;65.00;;;;;;6254263;28;20108;-70
2023/09/27 01:51:35;;;;;;;1.77;1.40;;;21.50;65.00;;;;;;6256747;28;20057;-69
2023/09/27 01:54:36;;;;;;;2.67;1.70;;;21.50;65.00;;;;;;6264668;28;20025;-70
2023/09/27 01:57:38;;;;;;;1.55;1.40;;;21.50;65.00;;;;;;6258814;28;20026;-70
2023/09/27 02:00:38;;;;;;;1.88;1.58;;;21.50;65.00;;;;;;6251193;28;20030;-69
2023/09/27 02:03:42;;;;;;;1.52;1.30;;;21.50;65.00;;;;;;6257123;28;20036;-70
2023/09/27 02:06:43;;;;;;;2.38;1.77;;;21.50;65.00;;;;;;6268100;28;20025;-70
2023/09/27 02:09:44;;;;;;;2.75;2.00;;;21.50;65.00;;;;;;6268115;28;20025;-69
2023/09/27 02:12:46;;;;;;;2.53;1.50;;;21.50;65.10;;;;;;6258590;28;20025;-70
2023/09/27 02:15:47;;;;;;;2.63;1.98;;;21.50;65.10;;;;;;6268192;28;20027;-69
2023/09/27 02:18:49;;;;;;;1.65;1.50;;;21.50;65.10;;;;;;6253814;28;20024;-70
2023/09/27 02:21:49;;;;;;;2.10;1.70;;;21.50;65.10;;;;;;6267035;28;20484;-70
2023/09/27 02:24:50;;;;;;;1.77;1.55;;;21.50;65.10;;;;;;6268077;28;20032;-69
2023/09/27 02:27:51;;;;;;;2.45;1.50;;;21.50;65.20;;;;;;6267720;28;20028;-70
2023/09/27 02:30:51;;;;;;;2.42;1.75;;;21.50;65.20;;;;;;6267926;28;20052;-70
2023/09/27 02:33:52;;;;;;;1.55;1.40;;;21.50;65.20;;;;;;6256417;28;20034;-70
2023/09/27 02:36:53;;;;;;;2.05;1.70;;;21.50;65.20;;;;;;6264155;28;20501;-69
2023/09/27 02:39:54;;;;;;;2.58;1.83;;;21.50;65.20;;;;;;6256074;28;20519;-69
2023/09/27 02:42:54;;;;;;;1.52;1.40;;;21.50;65.20;;;;;;6270530;28;20032;-70
2023/09/27 02:45:55;;;;;;;2.35;1.85;;;21.50;65.20;;;;;;6265017;28;20029;-71
2023/09/27 02:48:56;;;;;;;2.42;1.75;;;21.50;65.20;;;;;;6262028;28;20034;-69
2023/09/27 02:51:57;;;;;;;2.05;1.77;;;21.50;65.20;;;;;;6250834;28;20036;-69
2023/09/27 02:54:58;;;;;;;2.38;1.70;;;21.50;65.20;;;;;;6264102;28;20479;-69
2023/09/27 02:57:58;;;;;;;3.35;1.90;;;21.50;65.30;;;;;;6263401;28;20098;-69
2023/09/27 03:00:59;;;;;;;2.13;1.70;;;21.50;65.30;;;;;;6260906;28;20113;-69
2023/09/27 03:04:01;;;;;;;2.50;1.70;;;21.50;65.30;;;;;;6265104;28;20492;-70
2023/09/27 03:07:02;;;;;;;2.10;1.55;;;21.50;65.30;;;;;;6269984;28;20538;-71
2023/09/27 03:10:08;;;;;;;2.25;1.80;;;21.50;66.10;;;;;;6262339;28;20096;-70
2023/09/27 03:13:09;;;;;;;1.92;1.55;;;21.50;65.30;;;;;;6256508;28;20022;-72
2023/09/27 03:16:10;;;;;;;3.15;2.15;;;21.50;65.30;;;;;;6266067;28;20057;-69
2023/09/27 03:19:11;;;;;;;2.40;1.38;;;21.50;65.20;;;;;;6263462;28;20028;-69
2023/09/27 03:22:11;;;;;;;1.85;1.60;;;21.50;65.20;;;;;;6271913;28;20452;-70
2023/09/27 03:25:12;;;;;;;2.40;1.83;;;21.50;65.20;;;;;;6271644;28;20719;-69
2023/09/27 03:28:14;;;;;;;1.65;1.27;;;21.50;65.20;;;;;;6267903;28;20025;-69
2023/09/27 03:31:14;;;;;;;2.60;1.80;;;21.50;65.20;;;;;;6266161;28;20021;-71
2023/09/27 03:34:16;;;;;;;2.08;1.70;;;21.50;65.20;;;;;;6260089;28;20523;-69
2023/09/27 03:37:17;;;;;;;1.45;1.30;;;21.50;65.20;;;;;;6258110;28;20028;-70
2023/09/27 03:40:17;;;;;;;2.28;1.85;;;21.50;65.20;;;;;;6271330;28;20422;-69
2023/09/27 03:43:19;;;;;;;2.05;1.60;;;21.50;65.20;;;;;;6270395;28;20060;-70
2023/09/27 03:46:20;;;;;;;3.10;1.80;;;21.50;65.20;;;;;;6258977;28;20025;-70
2023/09/27 03:49:21;;;;;;;2.22;1.50;;;21.50;65.30;;;;;;6265980;28;20028;-71
2023/09/27 03:52:21;;;;;;;2.10;1.70;;;21.50;65.20;;;;;;6262275;28;20025;-69
2023/09/27 03:55:23;;;;;;;1.83;1.58;;;21.50;65.20;;;;;;6262987;28;20040;-69
2023/09/27 03:58:24;;;;;;;1.65;1.40;;;21.50;65.20;;;;;;6262433;28;20021;-69
2023/09/27 04:01:24;;;;;;;2.35;1.60;;;21.50;65.20;;;;;;6270843;28;20140;-69
2023/09/27 04:04:25;;;;;;;1.70;1.60;;;21.50;65.20;;;;;;6265209;28;20045;-69
2023/09/27 04:07:26;;;;;;;1.80;1.50;;;21.50;65.30;;;;;;6250570;28;20446;-69
2023/09/27 04:10:28;;;;;;;1.75;1.52;;;21.50;65.30;;;;;;6257207;28;20021;-70
2023/09/27 04:13:32;;;;;;;2.78;1.73;;;21.50;65.30;;;;;;6249086;28;20021;-69
2023/09/27 04:16:34;;;;;;;1.83;1.63;;;21.50;65.20;;;;;;6260794;28;20107;-70
2023/09/27 04:19:34;;;;;;;2.00;1.67;;;21.50;66.10;;;;;;6268203;28;20025;-70
2023/09/27 04:22:35;;;;;;;2.00;1.50;;;21.50;65.20;;;;;;6270290;28;20082;-69
2023/09/27 04:25:37;;;;;;;2.17;1.83;;;21.50;65.30;;;;;;6269717;28;20025;-69
2023/09/27 04:28:39;;;;;;;2.20;2.00;;;21.50;65.30;;;;;;6263478;28;20083;-70
2023/09/27 04:31:39;;;;;;;2.03;1.67;;;21.50;65.20;;;;;;6260694;28;20025;-70
2023/09/27 04:34:40;;;;;;;3.83;1.60;;;21.50;65.20;;;;;;6261684;28;20057;-69
2023/09/27 04:37:41;;;;;;;1.70;1.60;;;21.50;65.20;;;;;;6260884;28;20040;-68
2023/09/27 04:40:42;;;;;;;1.88;1.60;;;21.50;65.40;;;;;;6266614;28;20043;-69
2023/09/27 04:43:47;;;;;;;2.30;1.98;;;21.50;65.30;;;;;;6268562;28;20153;-70
2023/09/27 04:46:47;;;;;;;2.00;1.70;;;21.50;65.20;;;;;;6269164;28;20029;-69
2023/09/27 04:49:48;;;;;;;2.75;1.77;;;21.50;65.20;;;;;;6268126;28;20032;-69
2023/09/27 04:52:50;;;;;;;2.75;1.60;;;21.50;65.30;;;;;;6268125;28;20387;-69
2023/09/27 04:55:52;;;;;;;1.33;1.23;;;21.50;65.30;;;;;;6267541;28;20032;-69
2023/09/27 04:58:53;;;;;;;2.20;1.60;;;21.50;65.20;;;;;;6259997;28;20025;-70
2023/09/27 05:01:54;;;;;;;2.03;1.65;;;21.50;65.30;;;;;;6268059;28;20539;-69
2023/09/27 05:04:55;;;;;;;2.20;1.58;;;21.50;65.20;;;;;;6260129;28;20047;-71
2023/09/27 05:07:56;;;;;;;2.17;1.60;;;21.50;65.30;;;;;;6268842;28;20487;-69
2023/09/27 05:10:57;;;;;;;2.42;1.80;;;21.50;65.20;;;;;;6260632;28;20013;-71
2023/09/27 05:13:57;;;;;;;2.85;1.83;;;21.50;65.30;;;;;;6268645;28;20501;-69
2023/09/27 05:16:58;;;;;;;2.72;1.90;;;21.50;65.30;;;;;;6254021;28;20473;-69
2023/09/27 05:19:58;;;;;;;2.20;1.80;;;21.50;65.30;;;;;;6259380;28;20469;-69
2023/09/27 05:22:59;;;;;;;2.22;1.60;;;21.50;65.30;;;;;;6274131;28;20506;-69
2023/09/27 05:26:00;;;;;;;2.55;1.65;;;21.50;65.30;;;;;;6268495;28;20108;-68
2023/09/27 05:29:02;;;;;;;1.90;1.65;;;21.50;65.20;;;;;;6268538;28;20029;-68
2023/09/27 05:32:03;;;;;;;2.03;1.83;;;21.50;65.30;;;;;;6266378;28;20021;-68
2023/09/27 05:35:05;;;;;;;2.72;1.77;;;21.50;65.30;;;;;;6268445;28;20024;-68
2023/09/27 05:38:06;;;;;;;2.10;1.90;;;21.50;65.30;;;;;;6276407;28;20112;-68
2023/09/27 05:41:06;;;;;;;2.35;1.80;;;21.50;65.30;;;;;;6264434;28;20102;-68
2023/09/27 05:44:07;;;;;;;1.95;1.67;;;21.50;65.20;;;;;;6268021;28;20029;-68
2023/09/27 05:47:08;;;;;;;1.98;1.63;;;21.50;65.30;;;;;;6268444;28;20487;-68
2023/09/27 05:50:11;;;;;;;1.85;1.65;;;21.50;65.30;;;;;;6264735;28;20025;-68
2023/09/27 05:53:12;;;;;;;1.92;1.75;;;21.50;65.30;;;;;;6264133;28;20032;-68
2023/09/27 05:56:13;;;;;;;2.20;1.92;;;21.50;65.30;;;;;;6271820;28;20025;-69
2023/09/27 05:59:14;;;;;;;1.75;1.50;;;21.50;65.30;;;;;;6256713;28;20020;-69
2023/09/27 06:02:20;;;;;;;2.70;1.80;;;21.50;65.30;;;;;;6250883;28;20833;-71
2023/09/27 06:05:20;;;;;;;2.20;1.88;;;21.50;65.40;;;;;;6255810;28;20029;-70
2023/09/27 06:08:21;;;;;;;5.97;4.28;;;21.40;65.30;;;;;;6256990;28;20751;-70
2023/09/27 06:11:22;;;;;;;4.13;2.95;;;21.50;64.70;;;;;;6260495;28;20507;-69
2023/09/27 06:14:23;;;;;;;2.55;2.10;;;21.50;64.90;;;;;;6264578;28;20144;-69
2023/09/27 06:17:23;;;;;;;2.95;2.25;;;21.50;64.90;;;;;;6257797;28;20028;-70
2023/09/27 06:20:29;;;;;;;2.97;2.22;;;21.50;64.90;;;;;;6269510;28;20434;-70
2023/09/27 06:23:30;;;;;;;3.28;2.50;;;21.50;65.10;;;;;;6259907;28;20025;-70
2023/09/27 06:26:31;;;;;;;4.40;2.88;;;21.50;65.10;;;;;;6260317;28;20505;-70
2023/09/27 06:29:33;;;;;;;5.55;2.75;;;21.50;65.10;;;;;;6259941;28;20040;-70
2023/09/27 06:32:35;;;;;;;3.15;2.55;;;21.50;65.20;;;;;;6253571;28;20021;-70
2023/09/27 06:35:37;;;;;;;3.38;2.90;;;21.50;65.00;;;;;;6267105;28;20021;-70
2023/09/27 06:38:38;;;;;;;4.88;2.88;;;21.50;65.10;;;;;;6268394;28;20094;-70
2023/09/27 06:41:43;;;;;;;2.72;2.42;;;21.50;65.10;;;;;;6260752;28;20029;-70
2023/09/27 06:44:44;;;;;;;4.20;2.60;;;21.50;65.10;;;;;;6268667;28;20104;-70
2023/09/27 06:47:45;;;;;;;3.85;2.63;;;21.50;65.10;;;;;;6269659;28;20023;-69
2023/09/27 06:50:47;;;;;;;2.75;2.10;;;21.50;65.10;;;;;;6253519;28;20049;-70
2023/09/27 06:53:48;;;;;;;3.22;2.72;;;21.50;65.20;;;;;;6261203;28;20100;-70
2023/09/27 06:56:49;;;;;;;3.55;2.58;;;21.50;65.10;;;;;;6268973;28;20116;-70
2023/09/27 06:59:49;;;;;;;4.10;2.50;;;21.50;65.20;;;;;;6259744;28;20048;-70
2023/09/27 07:02:53;;;;;;;5.75;2.97;;;21.50;65.20;;;;;;6253206;28;20110;-69
2023/09/27 07:05:54;;;;;;;3.80;2.75;;;21.50;65.20;;;;;;6252035;28;20186;-69
2023/09/27 07:08:57;;;;;;;3.97;2.97;;;21.50;65.20;;;;;;6264750;28;20384;-70
2023/09/27 07:11:58;;;;;;;4.20;3.33;;;21.50;65.20;;;;;;6246471;28;20075;-70
2023/09/27 07:14:59;;;;;;;3.45;2.42;;;21.50;65.30;;;;;;6268780;28;20357;-70
2023/09/27 07:17:59;;;;;;;3.72;2.50;;;21.50;65.30;;;;;;6262224;28;20017;-70
2023/09/27 07:21:00;;;;;;;2.92;2.55;;;21.50;65.30;;;;;;6264159;28;20137;-70
2023/09/27 07:24:01;;;;;;;5.22;2.30;;;21.50;65.40;;;;;;6257307;28;20396;-69
2023/09/27 07:27:02;;;;;;;5.05;2.63;;;21.50;65.50;;;;;;6266243;28;20029;-70
2023/09/27 07:30:03;;;;;;;4.28;2.75;;;21.50;65.40;;;;;;6263644;28;20028;-70
2023/09/27 07:33:11;;;;;;;3.80;2.83;;;21.50;65.30;;;;;;6265474;28;20176;-70
2023/09/27 07:36:11;;;;;;;3.33;2.53;;;21.50;65.30;;;;;;6259158;28;20033;-69
2023/09/27 07:39:13;;;;;;;3.85;3.05;;;21.50;65.30;;;;;;6264937;28;20506;-70
2023/09/27 07:42:14;;;;;;;3.35;2.55;;;21.50;65.30;;;;;;6269345;28;20025;-70
2023/09/27 07:45:21;;;;;;;4.15;2.83;;;21.50;65.30;;;;;;6254838;28;20094;-70
2023/09/27 07:48:24;;;;;;;4.28;2.92;;;21.50;65.20;;;;;;6263261;28;20385;-69
2023/09/27 07:51:25;;;;;;;3.10;2.80;;;21.50;65.20;;;;;;6264352;28;20103;-69
2023/09/27 07:54:26;;;;;;;3.30;2.53;;;21.50;65.30;;;;;;6262725;28;20037;-69
2023/09/27 07:57:28;;;;;;;4.35;2.75;;;21.50;65.20;;;;;;6264199;28;20115;-69
2023/09/27 08:00:29;;;;;;;2.92;2.55;;;21.50;65.20;;;;;;6264068;28;20033;-69
2023/09/27 08:03:30;;;;;;;2.92;2.45;;;21.50;65.30;;;;;;6259344;28;20446;-70
2023/09/27 08:06:31;;;;;;;3.38;2.70;;;21.50;65.20;;;;;;6271580;28;20032;-69
2023/09/27 08:09:38;;;;;;;3.13;2.80;;;21.50;65.30;;;;;;6266629;28;20622;-69
2023/09/27 08:12:42;;;;;;;4.00;2.38;;;21.50;65.40;;;;;;6255760;28;20017;-70
2023/09/27 08:15:46;;;;;;;3.22;2.35;;;21.50;65.40;;;;;;6248606;28;20018;-70
2023/09/27 08:18:47;;;;;;;3.47;2.63;;;21.40;65.30;;;;;;6270137;28;20437;-69
2023/09/27 08:21:48;;;;;;;3.30;2.30;;;21.50;65.50;;;;;;6264016;28;20029;-70
2023/09/27 08:24:48;;;;;;;3.28;2.40;;;21.50;65.40;;;;;;6263043;28;20612;-69
2023/09/27 08:27:50;;;;;;;3.10;2.53;;;21.50;65.40;;;;;;6271842;28;20463;-70
2023/09/27 08:30:51;;;;;;;2.92;2.47;;;21.50;65.40;;;;;;6254941;28;20512;-71
2023/09/27 08:33:52;;;;;;;4.43;2.80;;;21.50;65.40;;;;;;6263842;28;20035;-69
2023/09/27 08:36:53;;;;;;;2.88;2.40;;;21.50;65.40;;;;;;6263806;28;20488;-70
2023/09/27 08:39:54;;;;;;;3.17;2.70;;;21.50;65.40;;;;;;6255154;28;20056;-70
2023/09/27 08:42:57;;;;;;;3.38;2.60;;;21.50;65.40;;;;;;6254375;28;20034;-69
2023/09/27 08:45:59;;;;;;;4.78;2.47;;;21.50;65.30;;;;;;6255727;28;20021;-69
2023/09/27 08:49:01;;;;;;;3.15;2.22;;;21.50;65.30;;;;;;6263498;28;20632;-70
2023/09/27 08:52:02;;;;;;;3.67;2.40;;;21.50;65.30;;;;;;6254026;28;20086;-70
2023/09/27 08:55:03;;;;;;;2.58;2.35;;;21.50;65.30;;;;;;6255427;28;20017;-70
2023/09/27 08:58:08;;;;;;;2.85;2.45;;;21.50;65.40;;;;;;6257274;28;20028;-70
2023/09/27 09:01:10;;;;;;;3.10;2.30;;;21.50;65.30;;;;;;6260925;28;20018;-69
2023/09/27 09:04:12;;;;;;;3.10;2.50;;;21.50;65.30;;;;;;6263181;28;20043;-69
2023/09/27 09:07:12;;;;;;;3.67;2.58;;;21.50;65.30;;;;;;6257742;28;20036;-70
2023/09/27 09:10:15;;;;;;;3.13;2.30;;;21.50;65.30;;;;;;6270821;28;20078;-69
2023/09/27 09:13:21;;;;;;;2.78;2.22;;;21.40;65.20;;;;;;6262769;28;20024;-69
2023/09/27 09:16:23;;;;;;;2.80;2.35;;;21.50;65.30;;;;;;6271147;28;20025;-70
2023/09/27 09:19:25;;;;;;;3.33;2.60;;;21.50;65.30;;;;;;6263052;28;20021;-69
2023/09/27 09:22:30;;;;;;;3.47;2.40;;;21.40;65.20;;;;;;6262844;28;20423;-70
2023/09/27 09:25:41;;;;;;;;;;;21.50;65.30;;;;;;6264584;28;20128;-70
2023/09/27 09:28:59;;;;;;;3.05;2.58;;;21.50;65.30;;;;;;6269161;28;20424;-70
2023/09/27 09:32:06;;;;;;;2.75;2.13;;;21.50;65.30;;;;;;6256637;28;20053;-70
2023/09/27 09:35:09;;;;;;;2.63;2.30;;;21.50;65.30;;;;;;6261139;28;20044;-69
2023/09/27 09:38:09;;;;;;;2.38;1.98;;;21.50;65.30;;;;;;6252350;28;20500;-69
2023/09/27 09:41:11;;;;;;;3.05;2.30;;;21.50;65.40;;;;;;6259694;28;20113;-70
2023/09/27 09:44:25;;;;;;;2.80;2.40;;;21.50;65.30;;;;;;6247295;28;20044;-70
2023/09/27 09:47:25;;;;;;;2.38;2.10;;;21.50;65.30;;;;;;6260949;28;20082;-69
2023/09/27 09:50:29;;;;;;;3.75;2.40;;;21.40;65.20;;;;;;6249689;28;20017;-70
2023/09/27 09:53:30;;;;;;;2.47;2.05;;;21.50;65.30;;;;;;6250983;28;20510;-69
2023/09/27 09:56:31;;;;;;;3.65;2.53;;;21.40;65.30;;;;;;6268879;28;20025;-69
2023/09/27 09:59:48;;;;;;;2.08;1.88;;;21.50;65.30;;;;;;6270323;28;20094;-70
2023/09/27 10:02:53;;;;;;;2.97;2.25;;;21.50;65.30;;;;;;6262848;28;20024;-70
2023/09/27 10:05:53;;;;;;;;;;;21.40;65.30;;;;;;6262583;28;20036;-70
2023/09/27 10:08:55;;;;;;;2.42;2.00;;;21.40;65.30;;;;;;6254702;28;20556;-69
2023/09/27 10:11:59;;;;;;;2.22;1.95;;;21.50;65.40;;;;;;6261378;28;20025;-69
2023/09/27 10:15:02;;;;;;;2.63;2.20;;;21.40;65.30;;;;;;6246575;28;20079;-70
2023/09/27 10:18:21;;;;;;;2.90;2.30;;;21.40;65.20;;;;;;6262166;28;20017;-70
2023/09/27 10:21:22;;;;;;;2.35;2.10;;;21.40;65.30;;;;;;6267004;28;20029;-70
2023/09/27 10:24:26;;;;;;;2.47;2.13;;;21.50;65.40;;;;;;6265341;28;20059;-69
2023/09/27 10:28:00;;;;;;;2.72;1.98;;;21.40;65.30;;;;;;6258345;28;20044;-69
2023/09/27 10:31:05;;;;;;;2.55;2.10;;;21.50;65.30;;;;;;6278303;28;20086;-70
2023/09/27 10:34:28;;;;;;;;;;;21.40;65.20;;;;;;6269305;28;20029;-70
2023/09/27 10:37:59;;;;;;;3.60;2.22;;;21.50;65.40;;;;;;6267386;28;19905;-69
2023/09/27 10:41:00;;;;;;;2.63;2.38;;;21.50;65.30;;;;;;6267720;28;20063;-70
2023/09/27 10:44:02;;;;;;;2.83;2.15;;;21.50;65.30;;;;;;6269636;28;20082;-70
2023/09/27 10:47:04;;;;;;;2.90;2.20;;;21.50;65.30;;;;;;6260504;28;20466;-70
2023/09/27 10:50:05;;;;;;;2.67;2.25;;;21.50;65.30;;;;;;6253078;28;20416;-70
2023/09/27 10:53:06;;;;;;;3.15;2.30;;;21.50;65.40;;;;;;6271650;28;20087;-69
2023/09/27 10:56:08;;;;;;;2.75;2.17;;;21.40;65.20;;;;;;6266162;28;20025;-69
2023/09/27 10:59:09;;;;;;;2.53;2.03;;;21.50;65.30;;;;;;6263594;28;20032;-69
2023/09/27 11:02:10;;;;;;;2.50;2.00;;;21.50;65.30;;;;;;6268781;28;20021;-69
2023/09/27 11:05:11;;;;;;;5.47;2.28;;;21.50;65.30;;;;;;6273781;28;20424;-69
2023/09/27 11:08:18;;;;;;;3.40;2.40;;;21.50;65.30;;;;;;6266738;28;20033;-69
2023/09/27 11:11:19;;;;;;;2.50;2.10;;;21.50;65.30;;;;;;6266972;28;20032;-69
2023/09/27 11:14:34;;;;;;;3.88;2.50;;;21.50;65.30;;;;;;6260580;28;20025;-70
2023/09/27 11:17:34;;;;;;;3.92;2.30;;;21.50;65.30;;;;;;6265506;28;20056;-69
2023/09/27 11:20:36;;;;;;;3.55;2.50;;;21.50;65.30;;;;;;6264679;28;20028;-69
2023/09/27 11:23:56;;;;;;;3.78;2.20;;;21.50;65.30;;;;;;6263507;28;20021;-69
2023/09/27 11:26:57;;;;;;;4.70;2.50;;;21.50;65.30;;;;;;6266447;28;20025;-69
2023/09/27 11:29:58;;;;;;;4.05;2.17;;;21.50;65.30;;;;;;6263785;28;20078;-69
2023/09/27 11:33:01;;;;;;;4.32;2.55;;;21.50;65.30;;;;;;6265396;28;20025;-69
2023/09/27 11:36:05;;;;;;;4.10;2.35;;;21.50;65.30;;;;;;6264662;28;20021;-70
2023/09/27 11:39:06;;;;;;;4.18;2.30;;;21.50;65.30;;;;;;6258934;28;20096;-69
2023/09/27 11:42:08;;;;;;;3.78;1.95;;;21.50;65.30;;;;;;6262925;28;20128;-70
2023/09/27 11:45:12;;;;;;;3.97;2.67;;;21.50;65.30;;;;;;6264867;28;20021;-69
2023/09/27 11:48:14;;;;;;;5.63;2.70;;;21.50;65.30;;;;;;6257945;28;20553;-69
2023/09/27 11:51:15;;;;;;;5.28;2.58;;;21.50;65.30;;;;;;6265622;28;20030;-70
2023/09/27 11:54:16;;;;;;;4.95;2.72;;;21.50;65.30;;;;;;6259249;28;20415;-69
2023/09/27 11:57:17;;;;;;;7.18;2.60;;;21.50;65.30;;;;;;6256295;28;20025;-69
2023/09/27 12:00:19;;;;;;;5.05;2.63;;;21.50;65.40;;;;;;6264581;28;20063;-70
2023/09/27 12:03:19;;;;;;;4.68;2.10;;;21.50;65.40;;;;;;6255297;28;20113;-69
2023/09/27 12:06:21;;;;;;;4.60;2.45;;;21.50;65.40;;;;;;6264677;28;20029;-69
2023/09/27 12:09:22;;;;;;;5.43;2.30;;;21.50;65.40;;;;;;6271100;28;20432;-69
2023/09/27 12:12:23;;;;;;;4.80;2.42;;;21.50;65.40;;;;;;6268002;28;20037;-69
2023/09/27 12:15:23;;;;;;;7.65;2.72;;;21.50;65.40;;;;;;6270583;28;20103;-70
2023/09/27 12:18:24;;;;;;;7.03;2.53;;;21.50;65.40;;;;;;6272308;28;20028;-70
2023/09/27 12:21:25;;;;;;;3.70;2.25;;;21.50;65.40;;;;;;6263807;28;20082;-69
2023/09/27 12:24:25;;;;;;;4.90;2.55;;;21.50;65.40;;;;;;6263102;28;20481;-70
2023/09/27 12:27:26;;;;;;;4.57;2.40;;;21.50;65.40;;;;;;6262100;28;20040;-69
2023/09/27 12:30:27;;;;;;;6.15;2.67;;;21.50;65.40;;;;;;6256121;28;20076;-69
2023/09/27 12:33:28;;;;;;;4.78;2.45;;;21.50;65.40;;;;;;6254452;28;20033;-70
2023/09/27 12:36:29;;;;;;;6.75;2.78;;;21.50;65.50;;;;;;6260283;28;20021;-69
2023/09/27 12:39:29;;;;;;;4.40;2.38;;;21.50;65.40;;;;;;6255279;28;20063;-69
2023/09/27 12:42:31;;;;;;;4.65;2.45;;;21.50;65.40;;;;;;6271194;28;20048;-69
2023/09/27 12:45:32;;;;;;;5.38;2.25;;;21.50;65.40;;;;;;6263468;28;20116;-69
2023/09/27 12:48:33;;;;;;;3.20;2.10;;;21.50;65.40;;;;;;6271616;28;20148;-69
2023/09/27 12:51:33;;;;;;;3.90;2.25;;;21.50;65.40;;;;;;6267303;28;20044;-69
2023/09/27 12:54:34;;;;;;;3.42;2.00;;;21.50;65.40;;;;;;6263503;28;20028;-69
2023/09/27 12:57:34;;;;;;;6.30;2.65;;;21.50;65.40;;;;;;6271486;28;20573;-71
2023/09/27 13:00:41;;;;;;;5.72;2.45;;;21.50;65.40;;;;;;6263346;28;20432;-70
2023/09/27 13:03:42;;;;;;;4.03;2.60;;;21.50;65.40;;;;;;6253578;28;20117;-69
2023/09/27 13:06:44;;;;;;;4.10;2.08;;;21.50;65.40;;;;;;6259169;28;20032;-69
2023/09/27 13:09:45;;;;;;;3.85;2.22;;;21.50;65.40;;;;;;6270215;28;20032;-69
2023/09/27 13:12:46;;;;;;;5.68;3.00;;;21.50;65.40;;;;;;6262879;28;20021;-70
2023/09/27 13:15:46;;;;;;;5.50;2.75;;;21.50;65.40;;;;;;6263052;28;20029;-70
2023/09/27 13:18:47;;;;;;;4.97;2.42;;;21.50;65.40;;;;;;6262134;28;20075;-69
2023/09/27 13:21:48;;;;;;;5.28;2.60;;;21.50;65.40;;;;;;6253956;28;20361;-69
2023/09/27 13:24:49;;;;;;;5.25;2.40;;;21.50;65.40;;;;;;6254713;28;20056;-69
2023/09/27 13:27:49;;;;;;;4.85;2.47;;;21.50;65.40;;;;;;6261674;28;20493;-69
2023/09/27 13:30:51;;;;;;;4.47;2.10;;;21.50;65.40;;;;;;6254351;28;20026;-70
2023/09/27 13:33:52;;;;;;;5.35;2.50;;;21.50;65.40;;;;;;6261473;28;20032;-69
2023/09/27 13:36:53;;;;;;;3.65;2.20;;;21.50;65.40;;;;;;6246388;28;20029;-70
2023/09/27 13:39:53;;;;;;;6.15;2.58;;;21.50;65.40;;;;;;6253629;28;20424;-70
2023/09/27 13:42:54;;;;;;;3.58;2.15;;;21.50;65.40;;;;;;6246474;28;20025;-69
2023/09/27 13:45:55;;;;;;;3.90;2.33;;;21.50;65.40;;;;;;6260826;28;20485;-69
2023/09/27 13:48:56;;;;;;;5.80;2.63;;;21.50;65.40;;;;;;6260356;28;20029;-70
2023/09/27 13:51:56;;;;;;;4.25;2.20;;;21.50;65.40;;;;;;6266396;28;20029;-69
2023/09/27 13:54:57;;;;;;;5.13;2.70;;;21.50;65.30;;;;;;6263761;28;20057;-69
2023/09/27 13:57:58;;;;;;;3.38;2.17;;;21.50;65.50;;;;;;6266482;28;20028;-70
2023/09/27 14:00:59;;;;;;;3.38;2.35;;;21.50;65.50;;;;;;6253719;28;20033;-69
2023/09/27 14:04:01;;;;;;;6.18;2.55;;;21.50;65.50;;;;;;6270499;28;20029;-69
2023/09/27 14:07:01;;;;;;;2.65;1.85;;;21.50;65.50;;;;;;6268802;28;20052;-69
2023/09/27 14:10:03;;;;;;;3.75;2.03;;;21.50;65.40;;;;;;6262278;28;20128;-69
2023/09/27 14:13:03;;;;;;;4.45;2.38;;;21.50;65.30;;;;;;6270167;28;20020;-69
2023/09/27 14:16:07;;;;;;;3.05;1.95;;;21.50;65.30;;;;;;6269973;28;20361;-70
2023/09/27 14:19:08;;;;;;;3.65;2.15;;;21.50;65.40;;;;;;6261112;28;20028;-69
2023/09/27 14:22:08;;;;;;;4.95;2.55;;;21.50;65.40;;;;;;6260518;28;20026;-69
2023/09/27 14:25:10;;;;;;;4.15;2.40;;;21.50;65.40;;;;;;6259054;28;20026;-69
2023/09/27 14:28:10;;;;;;;4.25;2.58;;;21.50;65.40;;;;;;6265428;28;20507;-70
2023/09/27 14:31:11;;;;;;;3.75;2.30;;;21.50;65.40;;;;;;6273003;28;20048;-70
2023/09/27 14:34:13;;;;;;;5.05;2.75;;;21.50;65.40;;;;;;6268208;28;20036;-70
2023/09/27 14:37:14;;;;;;;5.28;2.42;;;21.50;65.40;;;;;;6269260;28;20212;-70
2023/09/27 14:40:17;;;;;;;3.90;2.10;;;21.50;65.30;;;;;;6252938;28;20507;-69
2023/09/27 14:43:17;;;;;;;3.60;2.08;;;21.50;65.30;;;;;;6264937;28;20044;-69
2023/09/27 14:46:18;;;;;;;3.85;2.28;;;21.50;65.40;;;;;;6274542;28;20503;-69
2023/09/27 14:49:19;;;;;;;5.20;2.50;;;21.50;65.40;;;;;;6264860;28;20017;-70
2023/09/27 14:52:20;;;;;;;3.40;2.28;;;21.50;65.40;;;;;;6266755;28;20025;-69
2023/09/27 14:55:23;;;;;;;3.45;2.15;;;21.50;65.50;;;;;;6249544;28;20017;-69
2023/09/27 14:58:24;;;;;;;5.03;2.40;;;21.50;66.20;;;;;;6257620;28;20025;-69
2023/09/27 15:01:24;;;;;;;5.45;2.40;;;21.50;65.40;;;;;;6270175;28;20139;-69
2023/09/27 15:04:25;;;;;;;5.25;2.42;;;21.50;65.40;;;;;;6264645;28;20570;-69
2023/09/27 15:07:26;;;;;;;5.20;2.35;;;21.50;65.40;;;;;;6264168;28;20033;-70
2023/09/27 15:10:27;;;;;;;3.33;2.15;;;21.50;65.40;;;;;;6247742;28;20036;-69
2023/09/27 15:13:28;;;;;;;3.42;2.05;;;21.50;65.40;;;;;;6261962;28;20040;-69
2023/09/27 15:16:29;;;;;;;4.38;2.17;;;21.50;65.40;;;;;;6272434;28;20021;-69
2023/09/27 15:19:30;;;;;;;3.05;2.30;;;21.50;65.40;;;;;;6273480;28;20494;-69
2023/09/27 15:22:31;;;;;;;3.60;2.45;;;21.50;65.40;;;;;;6272582;28;20667;-69
2023/09/27 15:25:31;;;;;;;3.05;2.13;;;21.50;65.40;;;;;;6261373;28;20057;-69
2023/09/27 15:28:34;;;;;;;4.68;2.58;;;21.50;65.40;;;;;;6271707;28;20033;-69
2023/09/27 15:31:35;;;;;;;4.45;2.25;;;21.50;65.40;;;;;;6264048;28;20078;-69
2023/09/27 15:34:35;;;;;;;3.22;2.10;;;21.50;65.40;;;;;;6267079;28;20029;-70
2023/09/27 15:37:36;;;;;;;2.47;1.70;;;21.50;66.40;;;;;;6262169;28;20571;-69
2023/09/27 15:40:37;;;;;;;2.65;2.08;;;21.50;65.50;;;;;;6257007;28;20040;-69
2023/09/27 15:43:37;;;;;;;4.10;2.42;;;21.50;65.50;;;;;;6263194;28;20033;-69
2023/09/27 15:46:43;;;;;;;3.60;2.38;;;21.50;65.50;;;;;;6273235;28;20037;-70
2023/09/27 15:49:44;;;;;;;3.75;1.98;;;21.50;65.50;;;;;;6265608;28;20094;-69